createdAt,value
2023-05-10T00:01:35.327Z,4.93
2023-05-10T00:04:04.048Z,5.87
2023-05-10T00:06:32.548Z,6.88
2023-05-10T00:09:00.869Z,8.57
2023-05-10T00:11:28.836Z,5.93
2023-05-10T00:13:56.839Z,5.35
2023-05-10T00:16:25.153Z,7.07
2023-05-10T00:18:54.338Z,5.93
2023-05-10T00:21:22.376Z,5.70
2023-05-10T00:23:50.489Z,8.02
2023-05-10T00:26:18.954Z,7.38
2023-05-10T00:28:46.867Z,8.50
2023-05-10T00:31:15.781Z,8.40
2023-05-10T00:33:43.749Z,8.15
2023-05-10T00:36:13.567Z,8.70
2023-05-10T00:38:42.110Z,10.25
2023-05-10T00:41:10.154Z,7.93
2023-05-10T00:43:38.153Z,7.00
2023-05-10T00:46:07.105Z,7.00
2023-05-10T00:48:36.062Z,4.18
2023-05-10T00:51:03.950Z,4.97
2023-05-10T00:53:34.716Z,5.27
2023-05-10T00:56:04.150Z,5.63
2023-05-10T00:58:32.297Z,4.63
2023-05-10T01:01:00.886Z,6.10
2023-05-10T01:03:28.679Z,6.05
2023-05-10T01:05:56.789Z,5.93
2023-05-10T01:08:24.867Z,5.65
2023-05-10T01:10:54.518Z,6.45
2023-05-10T01:13:33.889Z,5.45
2023-05-10T01:16:04.189Z,5.05
2023-05-10T01:18:35.999Z,5.73
2023-05-10T01:21:17.133Z,7.35
2023-05-10T01:24:25.236Z,7.68
2023-05-10T01:27:26.103Z,9.13
2023-05-10T01:32:57.957Z,7.03
2023-05-10T01:35:39.616Z,6.95
2023-05-10T01:38:14.854Z,9.52
2023-05-10T01:40:54.800Z,7.75
2023-05-10T01:43:28.876Z,6.60
2023-05-10T01:46:05.574Z,6.87
2023-05-10T01:48:35.770Z,6.95
2023-05-10T01:51:04.393Z,8.23
2023-05-10T01:53:35.196Z,7.85
2023-05-10T01:56:05.247Z,6.05
2023-05-10T01:58:36.397Z,4.90
2023-05-10T02:01:06.771Z,4.82
2023-05-10T02:03:38.560Z,4.95
2023-05-10T02:06:07.986Z,5.30
2023-05-10T02:08:38.751Z,5.10
2023-05-10T02:11:07.634Z,5.10
2023-05-10T02:13:38.609Z,5.57
2023-05-10T02:16:08.101Z,5.75
2023-05-10T02:18:38.415Z,6.35
2023-05-10T02:21:06.816Z,9.10
2023-05-10T02:23:36.168Z,10.33
2023-05-10T02:26:06.924Z,9.30
2023-05-10T02:28:36.006Z,9.25
2023-05-10T02:31:04.471Z,6.07
2023-05-10T02:33:34.911Z,6.72
2023-05-10T02:36:05.262Z,6.23
2023-05-10T02:38:35.246Z,6.70
2023-05-10T02:41:04.314Z,5.32
2023-05-10T02:43:34.804Z,7.70
2023-05-10T02:46:02.971Z,6.82
2023-05-10T02:48:31.172Z,5.73
2023-05-10T02:51:03.825Z,8.10
2023-05-10T02:53:35.700Z,9.60
2023-05-10T02:56:08.285Z,9.13
2023-05-10T02:58:36.749Z,7.75
2023-05-10T03:01:05.023Z,7.40
2023-05-10T03:03:33.249Z,6.97
2023-05-10T03:06:01.189Z,6.78
2023-05-10T03:08:30.332Z,5.32
2023-05-10T03:11:11.988Z,5.57
2023-05-10T03:13:50.928Z,5.37
2023-05-10T03:16:29.895Z,4.68
2023-05-10T03:19:08.650Z,5.68
2023-05-10T03:21:40.636Z,5.45
2023-05-10T03:24:12.984Z,7.00
2023-05-10T03:26:42.773Z,6.27
2023-05-10T03:29:13.123Z,6.45
2023-05-10T03:31:41.438Z,5.75
2023-05-10T03:34:10.590Z,5.15
2023-05-10T03:36:39.925Z,5.75
2023-05-10T03:39:08.123Z,5.47
2023-05-10T03:41:35.991Z,6.63
2023-05-10T03:44:05.727Z,6.28
2023-05-10T03:46:33.699Z,4.75
2023-05-10T03:49:01.936Z,6.70
2023-05-10T03:51:30.115Z,6.80
2023-05-10T03:53:58.400Z,6.43
2023-05-10T03:56:26.602Z,5.85
2023-05-10T03:58:54.479Z,5.70
2023-05-10T04:01:23.777Z,5.32
2023-05-10T04:03:51.770Z,5.17
2023-05-10T04:06:19.899Z,5.25
2023-05-10T04:08:47.768Z,5.78
2023-05-10T04:11:15.739Z,8.90
2023-05-10T04:13:44.000Z,6.13
2023-05-10T04:16:11.946Z,7.23
2023-05-10T04:18:41.233Z,6.95
2023-05-10T04:21:13.577Z,5.57
2023-05-10T04:23:41.824Z,6.57
2023-05-10T04:26:09.436Z,6.28
2023-05-10T04:28:37.137Z,7.37
2023-05-10T04:31:05.795Z,7.60
2023-05-10T04:33:34.311Z,7.13
2023-05-10T04:36:03.833Z,6.45
2023-05-10T04:38:31.732Z,6.35
2023-05-10T04:41:06.510Z,7.83
2023-05-10T04:43:34.131Z,7.28
2023-05-10T04:46:02.403Z,6.47
2023-05-10T04:48:30.142Z,8.48
2023-05-10T04:50:57.775Z,7.18
2023-05-10T04:53:27.241Z,6.63
2023-05-10T04:55:55.067Z,8.32
2023-05-10T04:58:23.069Z,7.03
2023-05-10T05:00:50.710Z,8.40
2023-05-10T05:03:18.822Z,7.20
2023-05-10T05:05:46.840Z,6.80
2023-05-10T05:08:15.186Z,7.32
2023-05-10T05:10:44.351Z,7.28
2023-05-10T05:13:12.496Z,7.88
2023-05-10T05:15:40.148Z,10.13
2023-05-10T05:18:08.113Z,10.37
2023-05-10T05:20:36.248Z,9.55
2023-05-10T05:23:03.945Z,9.20
2023-05-10T05:25:31.869Z,8.15
2023-05-10T05:28:01.033Z,8.18
2023-05-10T05:30:28.873Z,9.23
2023-05-10T05:32:56.844Z,7.55
2023-05-10T05:35:25.362Z,7.78
2023-05-10T05:37:53.291Z,9.88
2023-05-10T05:40:21.608Z,12.15
2023-05-10T05:42:49.437Z,9.77
2023-05-10T05:45:18.861Z,10.88
2023-05-10T05:47:46.907Z,10.68
2023-05-10T05:50:14.724Z,8.63
2023-05-10T05:52:42.757Z,8.63
2023-05-10T05:55:10.584Z,8.93
2023-05-10T05:57:38.414Z,7.47
2023-05-10T06:00:08.395Z,6.60
2023-05-10T06:02:37.967Z,8.80
2023-05-10T06:05:06.489Z,8.68
2023-05-10T06:07:34.634Z,8.17
2023-05-10T06:10:02.649Z,8.65
2023-05-10T06:12:30.544Z,10.00
2023-05-10T06:14:58.462Z,9.32
2023-05-10T06:17:26.594Z,10.35
2023-05-10T06:19:55.725Z,11.40
2023-05-10T06:22:23.992Z,9.80
2023-05-10T06:24:51.709Z,12.63
2023-05-10T06:27:19.569Z,10.85
2023-05-10T06:29:48.251Z,14.10
2023-05-10T06:32:17.295Z,12.47
2023-05-10T06:34:45.673Z,10.93
2023-05-10T06:37:14.996Z,13.68
2023-05-10T06:39:42.678Z,10.10
2023-05-10T06:42:10.501Z,11.25
2023-05-10T06:44:38.264Z,10.27
2023-05-10T06:47:05.983Z,11.00
2023-05-10T06:49:33.623Z,10.25
2023-05-10T06:52:01.385Z,9.48
2023-05-10T06:54:30.537Z,12.25
2023-05-10T06:56:58.175Z,13.50
2023-05-10T06:59:26.263Z,10.57
2023-05-10T07:01:55.175Z,10.07
2023-05-10T07:04:23.406Z,8.05
2023-05-10T07:06:52.204Z,8.07
2023-05-10T07:09:20.512Z,10.60
2023-05-10T07:11:49.665Z,10.63
2023-05-10T07:14:17.338Z,10.00
2023-05-10T07:16:45.560Z,9.20
2023-05-10T07:19:13.630Z,8.20
2023-05-10T07:21:43.685Z,7.90
2023-05-10T07:24:11.992Z,8.50
2023-05-10T07:26:39.605Z,9.18
2023-05-10T07:29:08.668Z,10.25
2023-05-10T07:31:36.791Z,13.75
2023-05-10T07:34:04.760Z,14.43
2023-05-10T07:36:33.437Z,15.05
2023-05-10T07:39:01.639Z,18.65
2023-05-10T07:41:29.554Z,15.98
2023-05-10T07:43:57.727Z,12.05
2023-05-10T07:46:27.332Z,12.67
2023-05-10T07:48:55.271Z,10.57
2023-05-10T07:51:23.205Z,10.65
2023-05-10T07:53:51.098Z,10.38
2023-05-10T07:56:23.253Z,9.70
2023-05-10T07:58:51.309Z,8.47
2023-05-10T08:01:19.002Z,9.38
2023-05-10T08:03:48.126Z,7.53
2023-05-10T08:06:16.580Z,9.50
2023-05-10T08:08:44.664Z,10.13
2023-05-10T08:11:12.305Z,12.80
2023-05-10T08:13:40.468Z,11.50
2023-05-10T08:16:08.531Z,7.47
2023-05-10T08:18:36.440Z,7.35
2023-05-10T08:21:05.848Z,8.00
2023-05-10T08:23:33.682Z,6.17
2023-05-10T08:26:01.588Z,1.90
2023-05-10T08:28:29.517Z,1.42
2023-05-10T08:30:57.965Z,1.17
2023-05-10T08:33:25.920Z,0.90
2023-05-10T08:35:54.973Z,0.80
2023-05-10T08:38:24.674Z,1.30
2023-05-10T08:40:57.641Z,0.93
2023-05-10T08:43:29.439Z,1.00
2023-05-10T08:45:58.652Z,0.50
2023-05-10T08:48:26.983Z,0.70
2023-05-10T08:50:57.093Z,0.82
2023-05-10T08:53:28.858Z,0.60
2023-05-10T08:55:58.084Z,1.30
2023-05-10T08:58:26.055Z,0.98
2023-05-10T09:00:54.367Z,0.87
2023-05-10T09:03:25.510Z,0.93
2023-05-10T09:05:53.552Z,1.42
2023-05-10T09:08:22.448Z,0.70
2023-05-10T09:10:52.709Z,1.63
2023-05-10T09:13:21.720Z,0.67
2023-05-10T09:15:49.893Z,0.77
2023-05-10T09:18:17.890Z,1.25
2023-05-10T09:20:46.091Z,2.55
2023-05-10T09:23:14.019Z,0.95
2023-05-10T09:25:44.031Z,1.03
2023-05-10T09:28:13.946Z,0.85
2023-05-10T09:30:41.929Z,0.68
2023-05-10T09:33:09.918Z,1.30
2023-05-10T09:35:38.461Z,0.88
2023-05-10T09:38:09.081Z,0.80
2023-05-10T09:40:41.421Z,1.48
2023-05-10T09:43:11.852Z,0.80
2023-05-10T09:45:44.149Z,0.63
2023-05-10T09:48:12.027Z,0.73
2023-05-10T09:50:43.642Z,0.80
2023-05-10T09:53:16.937Z,1.17
2023-05-10T09:55:47.701Z,0.77
2023-05-10T09:58:16.301Z,0.82
2023-05-10T10:00:49.087Z,2.92
2023-05-10T10:03:19.260Z,1.00
2023-05-10T10:05:49.443Z,1.67
2023-05-10T10:08:20.625Z,0.50
2023-05-10T10:10:51.716Z,0.82
2023-05-10T10:13:19.777Z,0.70
2023-05-10T10:15:52.392Z,1.53
2023-05-10T10:18:24.557Z,0.50
2023-05-10T10:20:52.708Z,1.17
2023-05-10T10:23:20.912Z,1.77
2023-05-10T10:25:50.036Z,0.70
2023-05-10T10:28:42.453Z,0.87
2023-05-10T10:31:23.345Z,1.00
2023-05-10T10:34:01.685Z,0.80
2023-05-10T10:36:29.955Z,1.65
2023-05-10T10:39:01.758Z,1.35
2023-05-10T10:41:32.179Z,2.63
2023-05-10T10:44:26.008Z,3.33
2023-05-10T10:47:31.078Z,1.35
2023-05-10T10:50:06.737Z,0.93
2023-05-10T10:52:36.417Z,1.27
2023-05-10T10:55:07.207Z,1.03
2023-05-10T10:57:45.153Z,1.10
2023-05-10T11:00:29.107Z,0.90
2023-05-10T11:03:01.599Z,1.00
2023-05-10T11:05:40.133Z,1.10
2023-05-10T11:08:19.439Z,0.70
2023-05-10T11:11:13.797Z,1.10
2023-05-10T11:13:43.644Z,1.60
2023-05-10T11:16:19.751Z,1.35
2023-05-10T11:19:01.328Z,2.75
2023-05-10T11:21:29.587Z,6.97
2023-05-10T11:23:59.078Z,3.70
2023-05-10T11:26:35.267Z,1.70
2023-05-10T11:29:05.875Z,1.63
2023-05-10T11:31:34.233Z,1.63
2023-05-10T11:34:04.395Z,1.33
2023-05-10T11:36:37.208Z,1.05
2023-05-10T11:39:06.373Z,2.80
2023-05-10T11:41:39.667Z,0.88
2023-05-10T11:44:11.822Z,1.35
2023-05-10T11:46:39.822Z,1.20
2023-05-10T11:49:09.807Z,1.58
2023-05-10T11:51:40.442Z,1.40
2023-05-10T11:54:10.578Z,1.50
2023-05-10T11:56:44.154Z,1.60
2023-05-10T11:59:19.488Z,2.90
2023-05-10T12:01:47.689Z,1.52
2023-05-10T12:04:17.768Z,1.83
2023-05-10T12:06:47.820Z,1.23
2023-05-10T12:09:19.265Z,1.50
2023-05-10T12:11:52.076Z,1.30
2023-05-10T12:14:22.388Z,2.00
2023-05-10T12:16:53.091Z,4.00
2023-05-10T12:19:44.727Z,3.00
2023-05-10T12:22:19.397Z,2.17
2023-05-10T12:24:48.170Z,2.30
2023-05-10T12:27:17.486Z,1.83
2023-05-10T12:29:48.748Z,2.38
2023-05-10T12:32:18.991Z,1.60
2023-05-10T12:34:48.856Z,3.63
2023-05-10T12:37:17.472Z,4.10
2023-05-10T12:39:47.494Z,1.75
2023-05-10T12:42:16.342Z,1.50
2023-05-10T12:44:44.198Z,2.35
2023-05-10T12:47:12.410Z,2.28
2023-05-10T12:49:43.487Z,1.20
2023-05-10T12:52:13.069Z,1.67
2023-05-10T12:54:45.697Z,0.70
2023-05-10T12:57:14.876Z,1.35
2023-05-10T12:59:42.764Z,1.38
2023-05-10T13:02:11.002Z,1.10
2023-05-10T13:04:41.046Z,1.58
2023-05-10T13:07:09.126Z,2.40
2023-05-10T13:09:38.385Z,1.52
2023-05-10T13:12:08.114Z,1.65
2023-05-10T13:14:37.217Z,2.57
2023-05-10T13:17:05.282Z,2.92
2023-05-10T13:19:33.264Z,1.92
2023-05-10T13:22:01.626Z,1.85
2023-05-10T13:24:31.446Z,3.20
2023-05-10T13:27:02.282Z,1.77
2023-05-10T13:29:31.340Z,2.83
2023-05-10T13:31:59.746Z,3.00
2023-05-10T13:34:27.953Z,2.22
2023-05-10T13:36:57.116Z,3.25
2023-05-10T13:39:25.336Z,1.60
2023-05-10T13:41:55.780Z,2.50
2023-05-10T13:44:25.141Z,1.77
2023-05-10T13:46:53.140Z,1.33
2023-05-10T13:49:21.781Z,1.15
2023-05-10T13:51:49.935Z,2.60
2023-05-10T13:54:20.497Z,2.15
2023-05-10T13:56:50.125Z,9.80
2023-05-10T13:59:18.071Z,12.85
2023-05-10T14:01:47.325Z,12.48
2023-05-10T14:04:15.388Z,8.30
2023-05-10T14:06:43.310Z,5.65
2023-05-10T14:09:11.359Z,8.77
2023-05-10T14:11:42.836Z,8.65
2023-05-10T14:14:11.117Z,7.82
2023-05-10T14:16:39.459Z,6.17
2023-05-10T14:19:08.861Z,5.63
2023-05-10T14:21:37.116Z,3.45
2023-05-10T14:24:06.804Z,1.10
2023-05-10T14:26:35.288Z,1.65
2023-05-10T14:29:03.469Z,1.40
2023-05-10T14:31:31.894Z,0.75
2023-05-10T14:34:00.256Z,2.78
2023-05-10T14:36:30.347Z,4.07
2023-05-10T14:38:59.254Z,2.75
2023-05-10T14:41:27.176Z,1.37
2023-05-10T14:43:55.886Z,1.25
2023-05-10T14:46:23.567Z,2.80
2023-05-10T14:48:51.418Z,1.50
2023-05-10T14:51:23.247Z,1.95
2023-05-10T14:53:52.742Z,1.77
2023-05-10T14:56:22.161Z,2.25
2023-05-10T14:58:49.845Z,3.10
2023-05-10T15:01:17.921Z,1.08
2023-05-10T15:03:46.442Z,1.02
2023-05-10T15:06:16.390Z,1.50
2023-05-10T15:08:44.314Z,1.83
2023-05-10T15:11:13.781Z,0.70
2023-05-10T15:13:41.427Z,2.72
2023-05-10T15:16:09.315Z,2.58
2023-05-10T15:18:37.339Z,1.53
2023-05-10T15:21:05.275Z,2.13
2023-05-10T15:23:33.207Z,2.58
2023-05-10T15:26:01.053Z,4.05
2023-05-10T15:28:30.592Z,2.53
2023-05-10T15:30:59.544Z,2.27
2023-05-10T15:33:28.796Z,1.05
2023-05-10T15:35:57.268Z,1.25
2023-05-10T15:38:25.085Z,2.03
2023-05-10T15:40:53.826Z,2.53
2023-05-10T15:43:21.750Z,2.27
2023-05-10T15:45:51.540Z,1.90
2023-05-10T15:48:19.167Z,1.83
2023-05-10T15:50:47.268Z,2.92
2023-05-10T15:53:16.672Z,1.73
2023-05-10T15:55:45.126Z,2.47
2023-05-10T15:58:13.045Z,2.35
2023-05-10T16:00:41.812Z,2.78
2023-05-10T16:03:11.051Z,1.95
2023-05-10T16:05:39.224Z,6.07
2023-05-10T16:08:07.211Z,6.40
2023-05-10T16:10:35.171Z,3.22
2023-05-10T16:13:04.016Z,2.50
2023-05-10T16:15:31.796Z,1.80
2023-05-10T16:17:59.798Z,2.80
2023-05-10T16:20:30.211Z,2.37
2023-05-10T16:22:58.122Z,2.40
2023-05-10T16:25:26.339Z,4.18
2023-05-10T16:27:54.282Z,2.05
2023-05-10T16:30:23.626Z,2.42
2023-05-10T16:32:51.846Z,1.47
2023-05-10T16:35:19.731Z,1.63
2023-05-10T16:37:49.262Z,1.55
2023-05-10T16:40:17.441Z,2.28
2023-05-10T16:42:45.383Z,1.98
2023-05-10T16:45:13.614Z,1.77
2023-05-10T16:47:43.063Z,2.80
2023-05-10T16:50:11.546Z,1.30
2023-05-10T16:52:39.581Z,4.43
2023-05-10T16:55:09.596Z,2.05
2023-05-10T16:57:37.180Z,1.27
2023-05-10T17:00:05.709Z,1.10
2023-05-10T17:02:33.395Z,1.08
2023-05-10T17:05:01.282Z,3.80
2023-05-10T17:07:29.340Z,3.53
2023-05-10T17:09:59.195Z,3.47
2023-05-10T17:12:28.360Z,2.78
2023-05-10T17:14:56.286Z,3.40
2023-05-10T17:17:25.160Z,6.65
2023-05-10T17:19:53.095Z,4.65
2023-05-10T17:22:21.064Z,3.17
2023-05-10T17:24:49.023Z,2.65
2023-05-10T17:27:16.676Z,4.68
2023-05-10T17:29:45.849Z,4.53
2023-05-10T17:32:13.446Z,5.10
2023-05-10T17:34:41.384Z,5.77
2023-05-10T17:37:10.245Z,4.63
2023-05-10T17:39:40.007Z,5.30
2023-05-10T17:42:08.529Z,5.75
2023-05-10T17:44:36.510Z,5.65
2023-05-10T17:47:06.322Z,9.00
2023-05-10T17:49:35.146Z,5.30
2023-05-10T17:52:03.484Z,7.55
2023-05-10T17:54:31.032Z,9.32
2023-05-10T17:57:00.966Z,7.35
2023-05-10T17:59:28.732Z,7.63
2023-05-10T18:01:56.320Z,3.53
2023-05-10T18:04:26.056Z,3.63
2023-05-10T18:07:00.738Z,3.10
2023-05-10T18:09:28.955Z,2.53
2023-05-10T18:11:56.558Z,3.13
2023-05-10T18:14:39.181Z,5.35
2023-05-10T18:17:08.986Z,6.90
2023-05-10T18:19:38.170Z,5.10
2023-05-10T18:22:06.995Z,5.30
2023-05-10T18:24:39.491Z,7.43
2023-05-10T18:27:07.834Z,6.22
2023-05-10T18:29:36.140Z,5.32
2023-05-10T18:32:04.961Z,7.93
2023-05-10T18:34:32.864Z,10.00
2023-05-10T18:37:02.471Z,11.00
2023-05-10T18:39:30.979Z,14.82
2023-05-10T18:41:58.594Z,22.63
2023-05-10T18:44:27.127Z,6.68
2023-05-10T18:46:55.473Z,7.20
2023-05-10T18:49:24.094Z,6.17
2023-05-10T18:51:52.221Z,3.63
2023-05-10T18:54:21.467Z,5.65
2023-05-10T18:56:49.891Z,3.83
2023-05-10T18:59:17.753Z,3.90
2023-05-10T19:01:45.529Z,2.47
2023-05-10T19:04:13.664Z,3.13
2023-05-10T19:06:42.330Z,3.83
2023-05-10T19:09:10.683Z,4.32
2023-05-10T19:11:39.805Z,4.05
2023-05-10T19:14:07.667Z,4.67
2023-05-10T19:16:35.971Z,3.10
2023-05-10T19:19:03.835Z,3.40
2023-05-10T19:21:32.702Z,3.90
2023-05-10T19:24:01.485Z,5.78
2023-05-10T19:26:29.540Z,4.93
2023-05-10T19:28:58.881Z,4.72
2023-05-10T19:31:26.552Z,4.72
2023-05-10T19:33:54.416Z,7.72
2023-05-10T19:36:22.222Z,4.40
2023-05-10T19:38:50.000Z,6.07
2023-05-10T19:41:18.590Z,5.18
2023-05-10T19:43:48.193Z,5.85
2023-05-10T19:46:18.686Z,5.97
2023-05-10T19:48:49.352Z,5.65
2023-05-10T19:51:16.961Z,4.07
2023-05-10T19:53:45.257Z,4.97
2023-05-10T19:56:14.237Z,3.90
2023-05-10T19:58:42.083Z,4.07
2023-05-10T20:01:09.928Z,4.68
2023-05-10T20:03:39.004Z,4.17
2023-05-10T20:06:06.802Z,4.82
2023-05-10T20:08:35.149Z,3.63
2023-05-10T20:11:04.040Z,4.40
2023-05-10T20:13:31.876Z,4.55
2023-05-10T20:16:00.848Z,5.17
2023-05-10T20:18:29.159Z,4.22
2023-05-10T20:21:00.444Z,3.33
2023-05-10T20:23:28.718Z,3.65
2023-05-10T20:25:56.628Z,2.85
2023-05-10T20:28:27.124Z,2.73
2023-05-10T20:30:56.189Z,2.72
2023-05-10T20:33:24.211Z,4.15
2023-05-10T20:35:52.567Z,4.60
2023-05-10T20:38:22.207Z,4.15
2023-05-10T20:40:50.675Z,3.17
2023-05-10T20:43:21.696Z,4.75
2023-05-10T20:45:54.921Z,3.15
2023-05-10T20:48:25.542Z,2.60
2023-05-10T20:50:53.599Z,2.67
2023-05-10T20:53:23.485Z,4.27
2023-05-10T20:55:51.294Z,3.90
2023-05-10T20:58:19.469Z,4.35
2023-05-10T21:00:47.234Z,4.65
2023-05-10T21:03:15.866Z,4.40
2023-05-10T21:05:43.661Z,3.70
2023-05-10T21:08:11.606Z,4.03
2023-05-10T21:10:41.221Z,3.00
2023-05-10T21:13:09.120Z,4.10
2023-05-10T21:15:36.918Z,3.47
2023-05-10T21:18:05.652Z,3.17
2023-05-10T21:20:33.560Z,6.03
2023-05-10T21:23:01.761Z,2.30
2023-05-10T21:25:29.662Z,3.13
2023-05-10T21:27:59.376Z,4.13
2023-05-10T21:30:27.299Z,3.87
2023-05-10T21:32:59.798Z,5.32
2023-05-10T21:35:28.324Z,3.38
2023-05-10T21:37:56.352Z,4.93
2023-05-10T21:40:24.670Z,4.82
2023-05-10T21:42:53.493Z,3.47
2023-05-10T21:45:22.641Z,4.32
2023-05-10T21:47:50.416Z,4.55
2023-05-10T21:50:18.831Z,4.93
2023-05-10T21:52:46.782Z,3.85
2023-05-10T21:55:14.495Z,3.50
2023-05-10T21:57:46.497Z,3.42
2023-05-10T22:00:16.265Z,4.82
2023-05-10T22:02:45.665Z,4.50
2023-05-10T22:05:13.473Z,5.15
2023-05-10T22:07:41.752Z,4.90
2023-05-10T22:10:10.318Z,4.78
2023-05-10T22:12:37.964Z,3.72
2023-05-10T22:15:10.430Z,4.32
2023-05-10T22:17:39.153Z,5.18
2023-05-10T22:20:10.250Z,5.50
2023-05-10T22:22:38.166Z,5.30
2023-05-10T22:25:07.099Z,4.95
2023-05-10T22:27:35.115Z,4.50
2023-05-10T22:30:03.177Z,4.82
2023-05-10T22:32:32.363Z,3.70
2023-05-10T22:35:00.268Z,4.45
2023-05-10T22:37:29.683Z,4.85
2023-05-10T22:39:57.358Z,4.72
2023-05-10T22:42:25.074Z,4.13
2023-05-10T22:44:52.856Z,6.63
2023-05-10T22:47:20.692Z,5.15
2023-05-10T22:49:48.421Z,6.35
2023-05-10T22:52:16.217Z,5.75
2023-05-10T22:54:45.229Z,6.05
2023-05-10T22:57:13.191Z,5.47
2023-05-10T22:59:40.784Z,5.00
2023-05-10T23:02:08.603Z,5.30
2023-05-10T23:04:37.051Z,5.45
2023-05-10T23:07:05.064Z,5.43
2023-05-10T23:09:32.624Z,9.17
2023-05-10T23:12:02.493Z,4.75
2023-05-10T23:14:30.252Z,6.13
2023-05-10T23:16:57.857Z,7.10
2023-05-10T23:19:25.773Z,5.50
2023-05-10T23:21:53.420Z,5.80
2023-05-10T23:24:20.996Z,5.43
2023-05-10T23:26:48.739Z,4.88
2023-05-10T23:29:17.812Z,4.80
2023-05-10T23:31:47.879Z,6.72
2023-05-10T23:34:15.828Z,6.80
2023-05-10T23:36:44.182Z,7.40
2023-05-10T23:39:12.075Z,6.28
2023-05-10T23:41:40.067Z,6.93
2023-05-10T23:44:07.728Z,5.43
2023-05-10T23:46:36.723Z,6.83
2023-05-10T23:49:04.468Z,9.65
2023-05-10T23:51:32.989Z,6.22
2023-05-10T23:54:00.635Z,5.88
2023-05-10T23:56:28.327Z,5.80
2023-05-10T23:58:56.255Z,4.90
